Holland, Nebraska
Current Conditions -  °F | °C
As of 2:54 PM on Friday 31 Oct 2014 (Local Time) from KLNK Reporting Station
Clear Clear  
Wind Chill: 40°   Ceiling: Unl
Heat Index: 44°   Visibility: 10mi
Dew Point: 17°   Wind: 7mph
Humidity: 34%   Direction: 10°N
Pressure: 30.52"   Gusts: NA
Location:  40.6166°N, 96.617°W
Report Text: KLNK 311954Z 01006KT 10SM CLR 07/M08 A3052 RMK AO2 SLP341 T00671083
Loading
Personal Weather Stations






























Interactive Weather Map New forecast layout! Learn more

10-Day Weather Forecast

Advertisements
Track Severe Weather on mobile